x

Gravelly Shoals Light Mi (gslm4) Weather Station

3:08am - Wed 22nd Nov 2017 All times are CST. -6 hours from GMT.

  • Wind
    10mph, 14mph gusts
  • Air Temp 29°f
  • Sea Pressure 1021mb
  • Gravelly Shoals Light Mi
  • Gravelly Shoals Light Mi

More Historic Weather Station data

Upgrade to MSW Pro to gain access to the past 30 days of data for over 8000 Wavebouys and Weather Stations around the globe.

Join

Comparision Forecast

View Surf forecast
   
Wed 11/22 3:08am 10 14 mph 1021mb 29f
2:40am 8 14 mph 1021mb 28f
2:30am 11 14 mph 1021mb 28f
2:20am 9 14 mph 1020.7mb 28f
2:10am 11 14 mph 1020.7mb 28f
2:08am 11 17 mph 1020.7mb 28f
2:00am 11 13 mph 1020.7mb 28f
Tue 11/21 11:07pm 22 26 mph 1017.6mb 31f
10:40pm 20 25 mph 1017.3mb 31f
10:30pm 20 26 mph 1017.3mb 31f
10:20pm 20 24 mph 1016.9mb 31f
10:10pm 20 25 mph 1016.9mb 31f
10:06pm 20 25 mph 1016.6mb 31f
10:00pm 21 25 mph 1016.6mb 31f
9:40pm 21 24 mph 1016.3mb 31f
9:30pm 21 29 mph 1016.3mb 31f
9:20pm 23 29 mph 1016.3mb 31f
9:10pm 23 30 mph 1015.9mb 32f
9:06pm 22
mph
1015.9mb 31f
9:00pm 23 28 mph 1015.9mb 32f
8:40pm 20 26 mph 1015.6mb 32f
8:30pm 21 25 mph 1015.6mb 32f
8:20pm 22 29 mph 1015.2mb 32f
8:10pm 20 26 mph 1015.2mb 33f
8:06pm 20
mph
1015.2mb 33f
8:00pm 24 26 mph 1014.9mb 33f
7:05pm 26
mph
1014.2mb 35f
6:40pm 24 29 mph 1013.9mb 35f
6:30pm 21 25 mph 1013.9mb 35f
6:20pm 22 28 mph 1013.5mb 35f
6:10pm 21 28 mph 1013.5mb 35f
6:05pm 23 29 mph 1013.5mb 35f
6:00pm 21 29 mph 1013.2mb 35f
5:04pm 28
mph
1011.5mb 37f
4:40pm 24 28 mph 1010.8mb 39f
4:30pm 18 22 mph 1010.8mb 40f
4:20pm 20 23 mph 1010.5mb 40f
4:10pm 21 25 mph 1010.2mb 40f
4:04pm 23 25 mph 1009.8mb 41f
4:00pm 18 23 mph 1009.5mb 41f
3:40pm 24 26 mph 1009.1mb 41f
3:30pm 24 29 mph 1008.8mb 42f
3:20pm 21 26 mph 1008.5mb 42f
3:10pm 24 28 mph 1008.1mb 42f
3:03pm 23
mph
1008.1mb 43f
3:00pm 26 30 mph 1007.8mb 43f
2:40pm 23 28 mph 1007.1mb 43f
2:30pm 26 30 mph 1007.1mb 44f
2:20pm 23 30 mph 1006.8mb 44f
2:10pm 26 29 mph 1006.4mb 44f
2:03pm 23
mph
1006.1mb 44f
2:00pm 23 28 mph 1006.1mb 44f
1:40pm 28 30 mph 1005.4mb 45f
1:35pm 24 29 mph 1005.8mb 44f
1:30pm 17 26 mph 1005.8mb 44f
1:20pm 23 28 mph 1005.4mb 44f
1:10pm 20 30 mph 1005.4mb 44f
1:03pm 26
mph
1005.1mb 44f
1:00pm 24 31 mph 1004.7mb 44f
12:40pm 25 29 mph 1004.7mb 45f
12:30pm 24 30 mph 1004.4mb 45f
12:20pm 25 34 mph 1004.1mb 46f
12:10pm 28 32 mph 1003.7mb 46f
12:07pm 25 29 mph 1003.7mb 45f
12:00pm 22 26 mph 1003.4mb 45f
11:40am 18 22 mph 1003.4mb 44f
11:30am 14 21 mph 1003mb 44f
11:20am 9 16 mph 1003mb 44f
11:10am 8 21 mph 1003mb 44f
11:02am 10 26 mph 1003mb 44f
11:00am 10 16 mph 1003.4mb 44f
10:40am 15 23 mph 1003.4mb 43f
10:30am 17 23 mph 1003mb 43f
10:20am 18 24 mph 1002.7mb 43f
10:10am 18 26 mph 1002.7mb 42f
10:01am 22 28 mph 1002.7mb 42f
10:00am 22 28 mph 1002.7mb 42f
9:40am 23 31 mph 1002.4mb 42f
9:30am 24 30 mph 1002.4mb 42f
9:20am 23 33 mph 1002.4mb 42f
9:10am 24 30 mph 1002.4mb 41f
9:01am 25
mph
1002.4mb 41f
9:00am 25 29 mph 1002mb 41f
8:40am 26 31 mph 1002mb 41f
8:38am 25 30 mph 1002mb 41f
8:30am 28 33 mph 1001.7mb 41f
8:20am 31 36 mph 1001.7mb 42f
8:10am 28 34 mph 1002mb 42f
8:00am 25 32 mph 1001.4mb 42f
7:40am 23 31 mph 1001.4mb 42f
7:35am 21 29 mph 1001mb 42f
7:30am 17 29 mph 1001mb 42f
7:20am 16 25 mph 1001mb 42f
7:10am 11 22 mph 1000.7mb 42f
7:00am 10 28 mph 1000.7mb 42f
6:40am 11 25 mph 1000.7mb 42f
6:30am 11 28 mph 1000.7mb 42f
6:20am 10 26 mph 1000.7mb 42f
6:10am 11 28 mph 1000.7mb 42f
6:00am 15 31 mph 1000.7mb 42f
5:40am 7 17 mph 1000.7mb 42f
5:30am 7 17 mph 1000.7mb 42f
5:20am 7 20 mph 1000.7mb 42f
5:10am 9 21 mph 1000.7mb 42f
5:00am 9 22 mph 1000.7mb 42f
4:40am 9 17 mph 1001mb 42f
4:30am 8 20 mph 1001mb 42f
4:20am 7 11 mph 1001mb 42f
4:10am 7 15 mph 1000.7mb 42f
4:00am 8 16 mph 1001mb 42f
3:50am 7 22 mph 1001mb 42f
3:40am 7 15 mph 1001mb 42f
3:30am 7 16 mph 1001mb 43f
3:20am 7 23 mph 1001mb 43f
3:10am 10 25 mph 1001mb 43f
3:00am 8 20 mph 1001.4mb 43f
2:50am 7 21 mph 1001.4mb 43f
2:40am 8 20 mph 1001.4mb 43f
2:30am 9 22 mph 1001.7mb 42f
2:20am 8 18 mph 1001.7mb 42f
2:10am 9 20 mph 1002mb 42f
2:00am 9 21 mph 1002mb 43f
1:50am 10 22 mph 1002mb 43f
1:40am 11 20 mph 1002mb 43f
1:30am 8 21 mph 1002mb 43f
1:23am 10 26 mph 1002.4mb 43f
1:20am 9 23 mph 1002.4mb 43f
1:10am 11 23 mph 1002.4mb 43f
1:00am 10 24 mph 1002.4mb 43f
12:50am 11 26 mph 1002.4mb 43f
12:40am 8 18 mph 1002.4mb 43f
12:30am 11 22 mph 1002.7mb 43f
12:23am 13 28 mph 1002.7mb 43f
12:20am 14 24 mph 1002.7mb 43f
12:10am 13 22 mph 1002.7mb 43f
12:00am 11 24 mph 1002.7mb 43f
Mon 11/20 11:50pm 9 21 mph 1003mb 43f
11:40pm 11 28 mph 1003.4mb 43f
11:30pm 10 22 mph 1003.4mb 43f
11:22pm 10 28 mph 1003.4mb 43f
11:20pm 9 20 mph 1003.7mb 43f
11:10pm 10 25 mph 1003.4mb 44f
11:00pm 13 26 mph 1003.7mb 44f
10:50pm 17 28 mph 1003.7mb 44f
10:40pm 13 25 mph 1004.1mb 44f
10:30pm 17 26 mph 1004.1mb 44f
10:22pm 15 26 mph 1004.1mb 44f
10:20pm 17 26 mph 1004.1mb 44f
10:10pm 13 23 mph 1004.4mb 44f
10:00pm 10 21 mph 1004.4mb 44f
9:50pm 13 20 mph 1004.4mb 44f
9:40pm 13 23 mph 1004.7mb 44f
9:30pm 15 25 mph 1004.7mb 44f
9:22pm 17 25 mph 1004.7mb 44f
9:20pm 13 22 mph 1004.7mb 44f
9:10pm 8 15 mph 1004.7mb 44f
9:00pm 5 9 mph 1004.7mb 43f
8:50pm 5 10 mph 1004.7mb 43f
8:40pm 6 13 mph 1005.1mb 43f
8:30pm 6 14 mph 1005.1mb 43f
8:21pm 10 24 mph 1005.1mb 43f
8:20pm 10 16 mph 1005.1mb 43f
8:10pm 11 20 mph 1005.1mb 43f
8:00pm 14 21 mph 1005.1mb 42f
7:50pm 17 23 mph 1005.1mb 42f
7:40pm 18 24 mph 1005.1mb 42f
7:30pm 18 24 mph 1005.4mb 42f
7:21pm 20 26 mph 1005.4mb 42f
7:20pm 20 25 mph 1005.4mb 42f
7:10pm 21 26 mph 1005.8mb 42f
7:00pm 20 24 mph 1005.8mb 42f
6:50pm 21 25 mph 1006.1mb 43f
6:40pm 18 24 mph 1006.1mb 43f
6:30pm 16 22 mph 1006.1mb 43f
6:20pm 18 23 mph 1006.4mb 43f
6:10pm 17 21 mph 1006.4mb 43f
6:00pm 16 20 mph 1006.4mb 43f
5:50pm 14 16 mph 1006.8mb 43f
5:20pm 9 14 mph 1007.1mb 42f
4:40pm 6 9 mph 1007.5mb 43f
4:30pm 7 8 mph 1007.8mb 42f
4:20pm 5 17 mph 1007.8mb 42f
4:10pm 2 6 mph 1007.8mb 42f
4:00pm 5 14 mph 1008.1mb 42f
3:50pm 10 15 mph 1008.1mb 42f
3:40pm 11 16 mph 1008.1mb 42f
3:30pm 13 17 mph 1008.1mb 42f
3:20pm 15 18 mph 1008.5mb 42f
3:19pm 15 23 mph 1008.5mb 42f
3:10pm 16 22 mph 1008.5mb 42f
3:00pm 20 23 mph 1008.8mb 42f
2:50pm 20 23 mph 1008.8mb 42f
2:40pm 17 22 mph 1008.8mb 42f
2:30pm 3 14 mph 1008.5mb 41f
2:20pm 13 20 mph 1008.8mb 41f
2:19pm 11 26 mph 1008.8mb 41f
2:10pm 17 24 mph 1008.8mb 41f
2:00pm 18 23 mph 1009.1mb 41f
1:50pm 18 24 mph 1009.1mb 40f
1:40pm 21 25 mph 1009.1mb 40f
1:30pm 20 26 mph 1009.1mb 40f
1:20pm 22 28 mph 1009.5mb 40f
1:18pm 24 28 mph 1009.5mb 40f
1:10pm 22 29 mph 1009.5mb 39f
1:00pm 21 28 mph 1009.8mb 39f
12:50pm 15 24 mph 1009.8mb 39f
12:40pm 17 25 mph 1010.2mb 39f
12:30pm 23 29 mph 1010.2mb 38f
12:20pm 20 30 mph 1010.5mb 38f
12:18pm 21
mph
1010.5mb 38f
12:12pm 23 29 mph 1010.8mb 38f
12:10pm 18 25 mph 1010.8mb 38f
12:00pm 22 28 mph 1010.8mb 38f
11:50am 21 26 mph 1011.2mb 38f
11:40am 17 25 mph 1011.5mb 37f
11:30am 21 25 mph 1011.5mb 37f
11:20am 18 28 mph 1011.5mb 37f
11:17am 15 28 mph 1011.5mb 37f
11:10am 23 26 mph 1011.9mb 37f
11:00am 13 26 mph 1011.9mb 37f
10:50am 21 28 mph 1011.9mb 36f
10:40am 18 25 mph 1012.2mb 36f
10:30am 21 26 mph 1012.2mb 36f
10:20am 18 25 mph 1012.5mb 36f
10:17am 21 26 mph 1012.5mb 36f
10:10am 22 26 mph 1012.9mb 36f
10:00am 15 24 mph 1012.9mb 36f
9:50am 18 26 mph 1012.9mb 36f
9:40am 11 21 mph 1012.9mb 35f
9:30am 6 23 mph 1012.9mb 35f
9:20am 10 25 mph 1012.9mb 35f
9:17am 21
mph
1012.9mb 35f
9:10am 17 26 mph 1012.9mb 35f
9:00am 20 29 mph 1013.2mb 36f
8:50am 25 32 mph 1013.2mb 36f
8:40am 28 32 mph 1013.2mb 36f
8:30am 30 32 mph 1013.2mb 36f
8:25am 29 31 mph 1013.2mb 36f
8:20am 28 32 mph 1013.2mb 36f
8:16am 26
mph
1013.2mb 35f
8:10am 26 31 mph 1013.2mb 35f
8:00am 25 30 mph 1013.2mb 35f
7:50am 25 31 mph 1013.5mb 35f
7:40am 29 32 mph 1013.5mb 35f
7:30am 24 30 mph 1013.5mb 35f
7:25am 23 29 mph 1013.5mb 35f
7:20am 24 28 mph 1013.5mb 35f
7:16am 22 29 mph 1013.5mb 35f
7:10am 20 28 mph 1013.5mb 35f
7:00am 21 28 mph 1013.5mb 34f
6:50am 22 29 mph 1013.5mb 34f
6:40am 22 29 mph 1013.9mb 35f
6:30am 15 24 mph 1013.9mb 34f
6:20am 17 24 mph 1013.9mb 34f
6:10am 14 24 mph 1013.9mb 34f
6:00am 16 25 mph 1013.9mb 34f
5:50am 20 24 mph 1013.5mb 35f
5:40am 16 24 mph 1013.9mb 35f
5:30am 22 26 mph 1013.9mb 34f
5:20am 18 26 mph 1013.5mb 34f
5:15am 23 26 mph 1013.5mb 34f
5:10am 22 25 mph 1013.5mb 34f
5:00am 21 26 mph 1013.5mb 34f
4:50am 21 25 mph 1013.5mb 34f
4:40am 23 26 mph 1013.5mb 34f
4:30am 22 26 mph 1013.9mb 34f
4:20am 22 25 mph 1013.5mb 34f
4:15am 21 25 mph 1013.5mb 34f
4:10am 23 25 mph 1013.5mb 33f
4:00am 22 25 mph 1013.5mb 33f
3:50am 21 23 mph 1013.2mb 33f
3:40am 21 25 mph 1013.5mb 33f
3:30am 22 24 mph 1013.5mb 32f
3:20am 21 25 mph 1013.5mb 32f
3:14am 21 26 mph 1013.5mb 32f
3:10am 21 25 mph 1013.5mb 32f
3:00am 21 25 mph 1013.5mb 32f
2:50am 21 26 mph 1013.9mb 32f
2:40am 21 26 mph 1014.2mb 32f
2:30am 22 24 mph 1014.2mb 31f
2:20am 20 24 mph 1014.2mb 31f
2:14am 20 26 mph 1014.2mb 31f
2:10am 20 24 mph 1014.2mb 31f
2:00am 18 25 mph 1014.2mb 31f
1:50am 20 23 mph 1014.2mb 31f
1:40am 22 26 mph 1014.2mb 31f
1:30am 23 26 mph 1014.2mb 30f
1:20am 21 28 mph 1014.2mb 30f
1:13am 21
mph
1014.2mb 30f
1:10am 21 29 mph 1014.2mb 30f
1:00am 21 29 mph 1013.9mb 30f
12:50am 25 30 mph 1014.2mb 30f
12:40am 23 29 mph 1014.2mb 30f
12:30am 23 30 mph 1014.2mb 30f
12:25am 22 30 mph 1013.9mb 30f
12:20am 22 26 mph 1014.2mb 30f
12:10am 21 25 mph 1014.2mb 30f
12:00am 21 25 mph 1014.2mb 30f
Sun 11/19 11:50pm 22 30 mph 1014.2mb 30f
11:40pm 22 31 mph 1014.2mb 29f
11:30pm 24 29 mph 1014.2mb 29f
11:20pm 20 29 mph 1014.2mb 29f
11:13pm 25
mph
1014.2mb 29f
11:10pm 26 31 mph 1014.2mb 29f
11:00pm 23 29 mph 1014.2mb 29f
10:50pm 23 30 mph 1014.2mb 30f
10:49pm 21 30 mph 1014.2mb 29f
10:40pm 22 28 mph 1014.2mb 29f
10:30pm 20 25 mph 1014.2mb 29f
10:20pm 18 24 mph 1013.9mb 29f
10:12pm 21 29 mph 1014.2mb 29f
10:10pm 22 29 mph 1014.2mb 29f
10:00pm 22 28 mph 1014.2mb 29f
9:50pm 20 23 mph 1014.2mb 29f
9:40pm 17 24 mph 1014.2mb 29f
9:30pm 18 23 mph 1014.2mb 28f
9:20pm 18 23 mph 1014.2mb 28f
9:12pm 17 26 mph 1014.2mb 29f
9:10pm 17 23 mph 1014.2mb 29f
9:00pm 20 25 mph 1014.2mb 29f
8:50pm 21 25 mph 1014.2mb 28f
8:40pm 21 28 mph 1014.2mb 29f
8:30pm 22 26 mph 1013.9mb 29f
8:20pm 24 28 mph 1013.9mb 28f
8:11pm 22
mph
1014.2mb 29f
8:10pm 22 25 mph 1014.2mb 29f
8:00pm 15 23 mph 1013.9mb 28f
7:50pm 20 26 mph 1013.9mb 29f
7:40pm 22 29 mph 1013.5mb 29f
7:33pm 23 29 mph 1013.5mb 29f
7:30pm 23 28 mph 1013.5mb 29f
7:20pm 24 31 mph 1013.5mb 29f
7:11pm 26
mph
1013.9mb 29f
7:10pm 26 31 mph 1013.9mb 29f
7:00pm 28 32 mph 1013.5mb 29f
6:50pm 24 33 mph 1013.5mb 29f
6:40pm 25 32 mph 1013.5mb 29f
6:30pm 25 31 mph 1013.5mb 29f
6:20pm 26 32 mph 1013.5mb 29f
6:19pm 28 30 mph 1013.5mb 29f
6:10pm 24 32 mph 1013.2mb 29f
6:00pm 21 28 mph 1013.2mb 29f
5:50pm 26 30 mph 1013.2mb 29f
5:10pm 28
mph
1012.9mb 30f
4:40pm 24 31 mph 1012.2mb 30f
4:30pm 28 36 mph 1012.2mb 30f
4:20pm 29 32 mph 1012.2mb 31f
4:17pm 24 30 mph 1011.9mb 31f
4:10pm 18 22 mph 1011.9mb 31f
4:00pm 21 26 mph 1011.9mb 31f
3:50pm 22 25 mph 1011.9mb 31f
3:40pm 21 24 mph 1011.9mb 31f
3:30pm 23 26 mph 1011.5mb 31f
3:20pm 21 26 mph 1011.5mb 31f
3:10pm 20 23 mph 1011.5mb 31f
3:09pm 21 23 mph 1011.5mb 32f
3:00pm 22 25 mph 1011.2mb 31f
2:50pm 21 30 mph 1011.2mb 31f
2:40pm 28 33 mph 1011.2mb 31f
2:30pm 28 36 mph 1010.8mb 32f
2:20pm 28 31 mph 1010.8mb 32f
2:10pm 28 31 mph 1010.8mb 32f
2:09pm 26
mph
1010.8mb 32f
2:00pm 24 32 mph 1010.8mb 33f
1:57pm 23 29 mph 1010.5mb 32f
1:50pm 28 32 mph 1010.8mb 33f
1:40pm 28 34 mph 1010.5mb 32f
1:30pm 28 33 mph 1010.5mb 32f
1:20pm 23 26 mph 1010.5mb 32f
1:10pm 23 28 mph 1010.5mb 32f
1:08pm 24
mph
1010.5mb 32f
1:00pm 25 37 mph 1010.2mb 32f
12:53pm 32
mph
1010.2mb 32f
12:50pm 32 37 mph 1010.2mb 32f
12:40pm 28 34 mph 1010.2mb 32f
12:30pm 31 34 mph 1010.2mb 32f
12:20pm 25 30 mph 1009.8mb 33f
12:10pm 26 32 mph 1010.2mb 32f
12:08pm 26
mph
1010.2mb 32f
12:00pm 29 33 mph 1010.2mb 32f
11:52am 24 30 mph 1009.8mb 32f
11:50am 25 34 mph 1009.8mb 32f
11:40am 33 38 mph 1009.8mb 32f
11:30am 23 29 mph 1009.8mb 33f
11:20am 20 25 mph 1009.8mb 32f
11:10am 20 28 mph 1009.8mb 32f
11:07am 20
mph
1009.8mb 31f
11:00am 26 32 mph 1009.8mb 31f
10:50am 25 30 mph 1009.8mb 31f
10:40am 28 31 mph 1009.8mb 31f
10:30am 26 36 mph 1009.8mb 32f
10:20am 29 34 mph 1009.8mb 32f
10:10am 26 31 mph 1009.5mb 33f
10:07am 25
mph
1009.5mb 32f
10:00am 25 32 mph 1009.5mb 32f
9:50am 24 30 mph 1009.5mb 33f
9:49am 23 29 mph 1009.5mb 32f
9:40am 22 29 mph 1009.5mb 33f
9:30am 23 28 mph 1009.5mb 33f
9:20am 20 24 mph 1009.5mb 33f
9:10am 21 23 mph 1009.5mb 33f
9:06am 17 26 mph 1009.5mb 33f
9:00am 14 22 mph 1009.5mb 32f
8:50am 18 24 mph 1009.1mb 32f
8:40am 22 25 mph 1009.1mb 32f
8:30am 20 26 mph 1008.8mb 32f
8:20am 23 26 mph 1008.8mb 32f
8:10am 23 26 mph 1008.8mb 33f
8:06am 21 26 mph 1008.8mb 33f
8:00am 21 26 mph 1008.5mb 33f
7:50am 21 26 mph 1008.5mb 33f
7:40am 20 24 mph 1008.1mb 33f
7:30am 20 26 mph 1008.1mb 33f
7:20am 17 24 mph 1007.8mb 33f
7:10am 16 23 mph 1007.8mb 33f
7:06am 17 25 mph 1007.8mb 33f
7:00am 18 21 mph 1007.8mb 33f
6:50am 16 23 mph 1007.5mb 33f
6:40am 21 25 mph 1007.5mb 33f
6:30am 20 24 mph 1007.5mb 33f
6:20am 17 22 mph 1007.1mb 33f
6:10am 15 20 mph 1007.1mb 33f
6:00am 16 22 mph 1007.1mb 33f
5:50am 15 22 mph 1007.1mb 33f
5:40am 20 23 mph 1006.8mb 33f
5:30am 17 24 mph 1006.8mb 34f
5:20am 20 25 mph 1006.4mb 34f
5:10am 21 25 mph 1006.4mb 34f
5:05am 20 28 mph 1006.4mb 34f
5:00am 17 23 mph 1006.1mb 34f
4:50am 21 26 mph 1006.1mb 34f
4:40am 18 26 mph 1006.1mb 35f
4:30am 22 28 mph 1005.8mb 35f
4:20am 21 25 mph 1005.4mb 35f
4:10am 22 25 mph 1005.4mb 35f
4:04am 11 18 mph 1005.4mb 35f
4:00am 11 14 mph 1005.4mb 35f
3:50am 13 15 mph 1005.4mb 35f
3:40am 13 18 mph 1005.1mb 36f
3:30am 14 22 mph 1004.7mb 35f
3:20am 18 24 mph 1004.7mb 35f
3:10am 20 24 mph 1004.7mb 35f
3:04am 18
mph
1004.4mb 36f
3:00am 21 28 mph 1004.4mb 36f
2:50am 23 29 mph 1004.4mb 36f
2:40am 23 33 mph 1004.1mb 36f
2:30am 24 32 mph 1004.1mb 36f
2:29am 22 32 mph 1004.1mb 36f
2:20am 16 26 mph 1004.1mb 36f
2:10am 24 29 mph 1003.7mb 36f
2:03am 25
mph
1003.7mb 36f
2:00am 18 25 mph 1003.7mb 36f
1:50am 23 34 mph 1003.4mb 36f
1:40am 29 37 mph 1003mb 37f
1:30am 28 30 mph 1003mb 37f
1:23am 20 30 mph 1002.7mb 37f
1:20am 22 29 mph 1002.7mb 37f
1:10am 21 26 mph 1002.4mb 37f
1:00am 23 28 mph 1002.4mb 37f
12:50am 20 25 mph 1002mb 37f
12:40am 22 29 mph 1002mb 37f
12:30am 17 25 mph 1002mb 37f
12:20am 17 28 mph 1001.7mb 37f
12:10am 22 28 mph 1001.7mb 37f
12:03am 24
mph
1001.4mb 37f
12:00am 20 30 mph 1001.4mb 37f
Sat 11/18 11:50pm 22 30 mph 1001.4mb 37f
11:41pm 23 29 mph 1001mb 37f
11:40pm 23 29 mph 1001mb 37f
11:30pm 21 24 mph 1001mb 37f
11:20pm 22 25 mph 1000.7mb 37f
11:10pm 21 25 mph 1000.7mb 37f
11:02pm 21
mph
1000mb 37f
11:00pm 23 29 mph 1000mb 37f
10:50pm 26 31 mph 1000mb 37f
10:40pm 28 33 mph 999.7mb 37f
10:30pm 26 31 mph 999.7mb 37f
10:20pm 26 30 mph 999.3mb 37f
10:10pm 26 31 mph 999mb 37f
10:02pm 25
mph
999mb 37f
10:00pm 26 32 mph 999mb 37f
9:50pm 25 30 mph 998.6mb 37f
9:40pm 24 31 mph 998.6mb 37f
9:30pm 25 32 mph 998.6mb 37f
9:20pm 26 29 mph 998.3mb 37f
9:18pm 24 29 mph 998.3mb 37f
9:10pm 23 28 mph 998.3mb 37f
9:00pm 23 29 mph 998mb 37f
8:50pm 22 26 mph 998mb 37f
8:40pm 23 28 mph 998mb 37f
8:30pm 22 28 mph 997.6mb 37f
8:20pm 22 28 mph 997.6mb 37f
8:10pm 24 29 mph 997.3mb 37f
8:01pm 25
mph
997.3mb 37f
8:00pm 25 29 mph 997.3mb 37f
7:50pm 23 26 mph 997.3mb 37f
7:40pm 22 26 mph 997.3mb 37f
7:30pm 22 25 mph 997.3mb 37f
7:20pm 23 26 mph 997.3mb 37f
7:10pm 21 23 mph 997.3mb 37f
7:00pm 22 25 mph 997mb 37f
6:50pm 20 24 mph 997mb 37f
6:40pm 21 25 mph 997.3mb 36f
6:30pm 18 22 mph 997.3mb 36f
6:20pm 20 22 mph 997mb 36f
6:10pm 21 26 mph 997mb 36f
6:00pm 21 24 mph 997mb 36f
5:50pm 20 24 mph 997mb 36f
5:00pm 18 23 mph 996.6mb 35f
4:40pm 18 23 mph 996.6mb 35f
4:30pm 18 23 mph 996.3mb 35f
4:20pm 18 22 mph 996.3mb 35f
4:10pm 18 23 mph 996.3mb 35f
4:00pm 20 23 mph 996.3mb 35f
3:50pm 20 23 mph 995.9mb 35f
3:40pm 18 22 mph 996.3mb 34f
3:30pm 17 22 mph 995.9mb 34f
3:20pm 20 26 mph 995.9mb 34f
3:10pm 23 26 mph 995.9mb 35f
3:00pm 20 26 mph 995.6mb 35f
2:50pm 24 26 mph 995.6mb 35f
2:40pm 23 25 mph 995.6mb 36f
2:30pm 21 24 mph 995.9mb 36f
2:20pm 22 24 mph 995.9mb 37f
2:10pm 22 24 mph 996.3mb 37f
2:00pm 21 23 mph 996.3mb 38f
1:50pm 20 23 mph 996.6mb 38f
1:40pm 20 24 mph 996.6mb 38f
1:30pm 23 24 mph 996.3mb 39f
1:20pm 21 24 mph 996.6mb 39f
1:10pm 20 23 mph 996.6mb 40f
1:00pm 22 24 mph 996.6mb 40f
12:50pm 18 21 mph 996.3mb 40f
12:40pm 17 18 mph 996.3mb 40f
12:30pm 17 18 mph 995.9mb 40f
12:20pm 16 18 mph 996.3mb 40f
12:19pm 16 18 mph 996.3mb 40f
12:10pm 16 17 mph 996.3mb 40f
12:00pm 16 18 mph 996.3mb 40f
11:50am 17 18 mph 996.6mb 40f
11:40am 16 18 mph 996.6mb 40f
11:30am 16 18 mph 996.6mb 40f
11:20am 17 18 mph 997mb 40f
11:19am 16 18 mph 997mb 40f
11:10am 17 17 mph 997mb 40f
11:00am 15 17 mph 997.3mb 40f
10:50am 14 16 mph 997.6mb 40f
10:40am 14 15 mph 998mb 40f
10:30am 11 14 mph 998.3mb 40f